Terminal Aerodrome Forecast
Issued by NWS Flagstaff, AZ

Home | Current Version | Previous Version | Text Only | Print | Product List | Glossary On
Versions: 1 2 3 4 5 6 7 8 9 10 11 12 13 14 15 16 17 18 19
000
FTUS45 KFGZ 021135
TAFINW
TAF
KINW 021135Z 0212/0312 VRB06KT P6SM SCT250
     FM022000 20010KT P6SM SCT060 SCT250
     FM030300 19005KT P6SM FEW250=

USA.gov is the U.S. government's official web portal to all federal, state and local government web resources and services.